sensor_id;sensor_type;location;lat;lon;timestamp;temperature;humidity
12708;DHT22;6418;50.824;4.718;2023-04-24T00:01:06;9.30;99.90
12708;DHT22;6418;50.824;4.718;2023-04-24T00:03:34;9.30;99.90
12708;DHT22;6418;50.824;4.718;2023-04-24T00:06:01;9.30;99.90
12708;DHT22;6418;50.824;4.718;2023-04-24T00:08:29;9.30;99.90
12708;DHT22;6418;50.824;4.718;2023-04-24T00:10:56;9.30;99.90
12708;DHT22;6418;50.824;4.718;2023-04-24T00:13:24;9.30;99.90
12708;DHT22;6418;50.824;4.718;2023-04-24T00:15:51;9.30;99.90
12708;DHT22;6418;50.824;4.718;2023-04-24T00:18:18;9.30;99.90
12708;DHT22;6418;50.824;4.718;2023-04-24T00:20:45;9.30;99.90
12708;DHT22;6418;50.824;4.718;2023-04-24T00:23:13;9.30;99.90
12708;DHT22;6418;50.824;4.718;2023-04-24T00:25:40;9.30;99.90
12708;DHT22;6418;50.824;4.718;2023-04-24T00:28:07;9.30;99.90
12708;DHT22;6418;50.824;4.718;2023-04-24T00:30:35;9.30;99.90
12708;DHT22;6418;50.824;4.718;2023-04-24T00:33:03;9.30;99.90
12708;DHT22;6418;50.824;4.718;2023-04-24T00:35:30;9.30;99.90
12708;DHT22;6418;50.824;4.718;2023-04-24T00:37:56;9.30;99.90
12708;DHT22;6418;50.824;4.718;2023-04-24T00:40:23;9.30;99.90
12708;DHT22;6418;50.824;4.718;2023-04-24T00:42:50;9.20;99.90
12708;DHT22;6418;50.824;4.718;2023-04-24T00:45:18;9.30;99.90
12708;DHT22;6418;50.824;4.718;2023-04-24T00:47:46;9.30;99.90
12708;DHT22;6418;50.824;4.718;2023-04-24T00:50:15;9.20;99.90
12708;DHT22;6418;50.824;4.718;2023-04-24T00:52:42;9.30;99.90
12708;DHT22;6418;50.824;4.718;2023-04-24T00:55:09;9.20;99.90
12708;DHT22;6418;50.824;4.718;2023-04-24T00:57:37;9.30;99.90
12708;DHT22;6418;50.824;4.718;2023-04-24T01:00:05;9.30;99.90
12708;DHT22;6418;50.824;4.718;2023-04-24T01:02:38;9.20;99.90
12708;DHT22;6418;50.824;4.718;2023-04-24T01:05:11;9.20;99.90
12708;DHT22;6418;50.824;4.718;2023-04-24T01:07:39;9.20;99.90
12708;DHT22;6418;50.824;4.718;2023-04-24T01:10:10;9.20;99.90
12708;DHT22;6418;50.824;4.718;2023-04-24T01:12:37;9.20;99.90
12708;DHT22;6418;50.824;4.718;2023-04-24T01:15:05;9.20;99.90
12708;DHT22;6418;50.824;4.718;2023-04-24T01:17:32;9.20;99.90
12708;DHT22;6418;50.824;4.718;2023-04-24T01:19:59;9.20;99.90
12708;DHT22;6418;50.824;4.718;2023-04-24T01:22:33;9.20;99.90
12708;DHT22;6418;50.824;4.718;2023-04-24T01:25:00;9.20;99.90
12708;DHT22;6418;50.824;4.718;2023-04-24T01:27:27;9.20;99.90
12708;DHT22;6418;50.824;4.718;2023-04-24T01:29:54;9.20;99.90
12708;DHT22;6418;50.824;4.718;2023-04-24T01:32:21;9.20;99.90
12708;DHT22;6418;50.824;4.718;2023-04-24T01:34:49;9.10;99.90
12708;DHT22;6418;50.824;4.718;2023-04-24T01:37:17;9.10;99.90
12708;DHT22;6418;50.824;4.718;2023-04-24T01:39:45;9.00;99.90
12708;DHT22;6418;50.824;4.718;2023-04-24T01:42:12;9.00;99.90
12708;DHT22;6418;50.824;4.718;2023-04-24T01:44:40;9.00;99.90
12708;DHT22;6418;50.824;4.718;2023-04-24T01:47:07;8.90;99.90
12708;DHT22;6418;50.824;4.718;2023-04-24T01:49:34;8.90;99.90
12708;DHT22;6418;50.824;4.718;2023-04-24T01:52:01;8.80;99.90
12708;DHT22;6418;50.824;4.718;2023-04-24T01:54:28;8.80;99.90
12708;DHT22;6418;50.824;4.718;2023-04-24T01:56:57;8.70;99.90
12708;DHT22;6418;50.824;4.718;2023-04-24T01:59:25;8.70;99.90
12708;DHT22;6418;50.824;4.718;2023-04-24T02:01:54;8.60;99.90
12708;DHT22;6418;50.824;4.718;2023-04-24T02:04:21;8.60;99.90
12708;DHT22;6418;50.824;4.718;2023-04-24T02:06:48;8.60;99.90
12708;DHT22;6418;50.824;4.718;2023-04-24T02:09:15;8.50;99.90
12708;DHT22;6418;50.824;4.718;2023-04-24T02:11:42;8.50;99.90
12708;DHT22;6418;50.824;4.718;2023-04-24T02:14:10;8.50;99.90
12708;DHT22;6418;50.824;4.718;2023-04-24T02:16:37;8.40;99.90
12708;DHT22;6418;50.824;4.718;2023-04-24T02:19:04;8.40;99.90
12708;DHT22;6418;50.824;4.718;2023-04-24T02:21:31;8.40;99.90
12708;DHT22;6418;50.824;4.718;2023-04-24T02:23:58;8.40;99.90
12708;DHT22;6418;50.824;4.718;2023-04-24T02:26:25;8.40;99.90
12708;DHT22;6418;50.824;4.718;2023-04-24T02:28:52;8.40;99.90
12708;DHT22;6418;50.824;4.718;2023-04-24T02:31:21;8.40;99.90
12708;DHT22;6418;50.824;4.718;2023-04-24T02:33:48;8.40;99.90
12708;DHT22;6418;50.824;4.718;2023-04-24T02:36:15;8.30;99.90
12708;DHT22;6418;50.824;4.718;2023-04-24T02:38:42;8.40;99.90
12708;DHT22;6418;50.824;4.718;2023-04-24T02:41:09;8.30;99.90
12708;DHT22;6418;50.824;4.718;2023-04-24T02:43:36;8.30;99.90
12708;DHT22;6418;50.824;4.718;2023-04-24T02:46:03;8.30;99.90
12708;DHT22;6418;50.824;4.718;2023-04-24T02:48:32;8.30;99.90
12708;DHT22;6418;50.824;4.718;2023-04-24T02:50:59;8.30;99.90
12708;DHT22;6418;50.824;4.718;2023-04-24T02:53:26;8.30;99.90
12708;DHT22;6418;50.824;4.718;2023-04-24T02:55:53;8.30;99.90
12708;DHT22;6418;50.824;4.718;2023-04-24T02:58:20;8.30;99.90
12708;DHT22;6418;50.824;4.718;2023-04-24T03:00:47;8.30;99.90
12708;DHT22;6418;50.824;4.718;2023-04-24T03:03:14;8.30;99.90
12708;DHT22;6418;50.824;4.718;2023-04-24T03:05:42;8.30;99.90
12708;DHT22;6418;50.824;4.718;2023-04-24T03:08:09;8.30;99.90
12708;DHT22;6418;50.824;4.718;2023-04-24T03:10:37;8.30;99.90
12708;DHT22;6418;50.824;4.718;2023-04-24T03:13:04;8.30;99.90
12708;DHT22;6418;50.824;4.718;2023-04-24T03:15:31;8.30;99.90
12708;DHT22;6418;50.824;4.718;2023-04-24T03:17:58;8.30;99.90
12708;DHT22;6418;50.824;4.718;2023-04-24T03:20:26;8.30;99.90
12708;DHT22;6418;50.824;4.718;2023-04-24T03:22:54;8.30;99.90
12708;DHT22;6418;50.824;4.718;2023-04-24T03:25:22;8.30;99.90
12708;DHT22;6418;50.824;4.718;2023-04-24T03:27:51;8.30;99.90
12708;DHT22;6418;50.824;4.718;2023-04-24T03:30:18;8.30;99.90
12708;DHT22;6418;50.824;4.718;2023-04-24T03:32:45;8.20;99.90
12708;DHT22;6418;50.824;4.718;2023-04-24T03:35:12;8.20;99.90
12708;DHT22;6418;50.824;4.718;2023-04-24T03:37:39;8.20;99.90
12708;DHT22;6418;50.824;4.718;2023-04-24T03:40:08;8.20;99.90
12708;DHT22;6418;50.824;4.718;2023-04-24T03:42:35;8.20;99.90
12708;DHT22;6418;50.824;4.718;2023-04-24T03:45:03;8.20;99.90
12708;DHT22;6418;50.824;4.718;2023-04-24T03:47:30;8.20;99.90
12708;DHT22;6418;50.824;4.718;2023-04-24T03:49:57;8.20;99.90
12708;DHT22;6418;50.824;4.718;2023-04-24T03:52:24;8.20;99.90
12708;DHT22;6418;50.824;4.718;2023-04-24T03:54:51;8.20;99.90
12708;DHT22;6418;50.824;4.718;2023-04-24T03:57:19;8.20;99.90
12708;DHT22;6418;50.824;4.718;2023-04-24T03:59:46;8.20;99.90
12708;DHT22;6418;50.824;4.718;2023-04-24T04:02:13;8.20;99.90
12708;DHT22;6418;50.824;4.718;2023-04-24T04:04:40;8.10;99.90
12708;DHT22;6418;50.824;4.718;2023-04-24T04:07:07;8.10;99.90
12708;DHT22;6418;50.824;4.718;2023-04-24T04:09:34;8.10;99.90
12708;DHT22;6418;50.824;4.718;2023-04-24T04:12:01;8.10;99.90
12708;DHT22;6418;50.824;4.718;2023-04-24T04:14:30;8.10;99.90
12708;DHT22;6418;50.824;4.718;2023-04-24T04:16:56;8.10;99.90
12708;DHT22;6418;50.824;4.718;2023-04-24T04:19:23;8.10;99.90
12708;DHT22;6418;50.824;4.718;2023-04-24T04:21:50;8.10;99.90
12708;DHT22;6418;50.824;4.718;2023-04-24T04:24:19;8.10;99.90
12708;DHT22;6418;50.824;4.718;2023-04-24T04:26:48;8.10;99.90
12708;DHT22;6418;50.824;4.718;2023-04-24T04:29:16;8.10;99.90
12708;DHT22;6418;50.824;4.718;2023-04-24T04:31:45;8.10;99.90
12708;DHT22;6418;50.824;4.718;2023-04-24T04:34:12;8.10;99.90
12708;DHT22;6418;50.824;4.718;2023-04-24T04:36:40;8.10;99.90
12708;DHT22;6418;50.824;4.718;2023-04-24T04:39:07;8.10;99.90
12708;DHT22;6418;50.824;4.718;2023-04-24T04:41:34;8.10;99.90
12708;DHT22;6418;50.824;4.718;2023-04-24T04:44:01;8.10;99.90
12708;DHT22;6418;50.824;4.718;2023-04-24T04:46:30;8.10;99.90
12708;DHT22;6418;50.824;4.718;2023-04-24T04:49:01;8.10;99.90
12708;DHT22;6418;50.824;4.718;2023-04-24T04:51:28;8.10;99.90
12708;DHT22;6418;50.824;4.718;2023-04-24T04:53:55;8.10;99.90
12708;DHT22;6418;50.824;4.718;2023-04-24T04:56:22;8.10;99.90
12708;DHT22;6418;50.824;4.718;2023-04-24T04:58:49;8.10;99.90
12708;DHT22;6418;50.824;4.718;2023-04-24T05:01:16;8.10;99.90
12708;DHT22;6418;50.824;4.718;2023-04-24T05:03:44;8.20;99.90
12708;DHT22;6418;50.824;4.718;2023-04-24T05:06:12;8.20;99.90
12708;DHT22;6418;50.824;4.718;2023-04-24T05:08:39;8.20;99.90
12708;DHT22;6418;50.824;4.718;2023-04-24T05:11:06;8.20;99.90
12708;DHT22;6418;50.824;4.718;2023-04-24T05:13:33;8.20;99.90
12708;DHT22;6418;50.824;4.718;2023-04-24T05:16:00;8.20;99.90
12708;DHT22;6418;50.824;4.718;2023-04-24T05:18:28;8.20;99.90
12708;DHT22;6418;50.824;4.718;2023-04-24T05:20:54;8.20;99.90
12708;DHT22;6418;50.824;4.718;2023-04-24T05:23:23;8.20;99.90
12708;DHT22;6418;50.824;4.718;2023-04-24T05:25:50;8.20;99.90
12708;DHT22;6418;50.824;4.718;2023-04-24T05:28:17;8.20;99.90
12708;DHT22;6418;50.824;4.718;2023-04-24T05:30:45;8.20;99.90
12708;DHT22;6418;50.824;4.718;2023-04-24T05:33:12;8.20;99.90
12708;DHT22;6418;50.824;4.718;2023-04-24T05:35:40;8.20;99.90
12708;DHT22;6418;50.824;4.718;2023-04-24T05:38:11;8.10;99.90
12708;DHT22;6418;50.824;4.718;2023-04-24T05:40:39;8.10;99.90
12708;DHT22;6418;50.824;4.718;2023-04-24T05:43:06;8.10;99.90
12708;DHT22;6418;50.824;4.718;2023-04-24T05:45:33;8.10;99.90
12708;DHT22;6418;50.824;4.718;2023-04-24T05:48:01;8.10;99.90
12708;DHT22;6418;50.824;4.718;2023-04-24T05:50:28;8.10;99.90
12708;DHT22;6418;50.824;4.718;2023-04-24T05:52:55;8.10;99.90
12708;DHT22;6418;50.824;4.718;2023-04-24T05:55:23;8.10;99.90
12708;DHT22;6418;50.824;4.718;2023-04-24T05:57:52;8.10;99.90
12708;DHT22;6418;50.824;4.718;2023-04-24T06:00:19;8.10;99.90
12708;DHT22;6418;50.824;4.718;2023-04-24T06:02:47;8.10;99.90
12708;DHT22;6418;50.824;4.718;2023-04-24T06:05:14;8.10;99.90
12708;DHT22;6418;50.824;4.718;2023-04-24T06:07:41;8.00;99.90
12708;DHT22;6418;50.824;4.718;2023-04-24T06:10:09;8.10;99.90
12708;DHT22;6418;50.824;4.718;2023-04-24T06:12:36;8.00;99.90
12708;DHT22;6418;50.824;4.718;2023-04-24T06:15:06;8.00;99.90
12708;DHT22;6418;50.824;4.718;2023-04-24T06:17:33;8.00;99.90
12708;DHT22;6418;50.824;4.718;2023-04-24T06:20:00;8.00;99.90
12708;DHT22;6418;50.824;4.718;2023-04-24T06:22:30;8.00;99.90
12708;DHT22;6418;50.824;4.718;2023-04-24T06:24:57;8.00;99.90
12708;DHT22;6418;50.824;4.718;2023-04-24T06:27:24;8.00;99.90
12708;DHT22;6418;50.824;4.718;2023-04-24T06:29:51;8.00;99.90
12708;DHT22;6418;50.824;4.718;2023-04-24T06:32:22;7.90;99.90
12708;DHT22;6418;50.824;4.718;2023-04-24T06:34:49;8.00;99.90
12708;DHT22;6418;50.824;4.718;2023-04-24T06:37:16;8.00;99.90
12708;DHT22;6418;50.824;4.718;2023-04-24T06:39:43;8.00;99.90
12708;DHT22;6418;50.824;4.718;2023-04-24T06:42:13;7.90;99.90
12708;DHT22;6418;50.824;4.718;2023-04-24T06:44:40;7.90;99.90
12708;DHT22;6418;50.824;4.718;2023-04-24T06:47:07;8.00;99.90
12708;DHT22;6418;50.824;4.718;2023-04-24T06:49:36;8.00;99.90
12708;DHT22;6418;50.824;4.718;2023-04-24T06:52:04;8.00;99.90
12708;DHT22;6418;50.824;4.718;2023-04-24T06:54:31;8.00;99.90
12708;DHT22;6418;50.824;4.718;2023-04-24T06:56:58;8.00;99.90
12708;DHT22;6418;50.824;4.718;2023-04-24T06:59:26;8.00;99.90
12708;DHT22;6418;50.824;4.718;2023-04-24T07:01:53;8.00;99.90
12708;DHT22;6418;50.824;4.718;2023-04-24T07:04:20;8.00;99.90
12708;DHT22;6418;50.824;4.718;2023-04-24T07:06:49;8.00;99.90
12708;DHT22;6418;50.824;4.718;2023-04-24T07:09:16;8.00;99.90
12708;DHT22;6418;50.824;4.718;2023-04-24T07:11:44;8.00;99.90
12708;DHT22;6418;50.824;4.718;2023-04-24T07:14:11;8.00;99.90
12708;DHT22;6418;50.824;4.718;2023-04-24T07:16:38;8.00;99.90
12708;DHT22;6418;50.824;4.718;2023-04-24T07:19:06;8.10;99.90
12708;DHT22;6418;50.824;4.718;2023-04-24T07:21:33;8.10;99.90
12708;DHT22;6418;50.824;4.718;2023-04-24T07:24:01;8.10;99.90
12708;DHT22;6418;50.824;4.718;2023-04-24T07:26:29;8.20;99.90
12708;DHT22;6418;50.824;4.718;2023-04-24T07:28:56;8.20;99.90
12708;DHT22;6418;50.824;4.718;2023-04-24T07:31:23;8.20;99.90
12708;DHT22;6418;50.824;4.718;2023-04-24T07:33:51;8.20;99.90
12708;DHT22;6418;50.824;4.718;2023-04-24T07:36:18;8.20;99.90
12708;DHT22;6418;50.824;4.718;2023-04-24T07:38:45;8.30;99.90
12708;DHT22;6418;50.824;4.718;2023-04-24T07:41:14;8.30;99.90
12708;DHT22;6418;50.824;4.718;2023-04-24T07:43:41;8.30;99.90
12708;DHT22;6418;50.824;4.718;2023-04-24T07:46:08;8.30;99.90
12708;DHT22;6418;50.824;4.718;2023-04-24T07:48:36;8.30;99.90
12708;DHT22;6418;50.824;4.718;2023-04-24T07:51:03;8.30;99.90
12708;DHT22;6418;50.824;4.718;2023-04-24T07:53:30;8.30;99.90
12708;DHT22;6418;50.824;4.718;2023-04-24T07:55:58;8.30;99.90
12708;DHT22;6418;50.824;4.718;2023-04-24T07:58:26;8.30;99.90
12708;DHT22;6418;50.824;4.718;2023-04-24T08:00:53;8.30;99.90
12708;DHT22;6418;50.824;4.718;2023-04-24T08:03:20;8.30;99.90
12708;DHT22;6418;50.824;4.718;2023-04-24T08:05:47;8.30;99.90
12708;DHT22;6418;50.824;4.718;2023-04-24T08:08:16;8.40;99.90
12708;DHT22;6418;50.824;4.718;2023-04-24T08:10:43;8.40;99.90
12708;DHT22;6418;50.824;4.718;2023-04-24T08:13:10;8.50;99.90
12708;DHT22;6418;50.824;4.718;2023-04-24T08:15:39;8.50;99.90
12708;DHT22;6418;50.824;4.718;2023-04-24T08:18:07;8.60;99.90
12708;DHT22;6418;50.824;4.718;2023-04-24T08:20:34;8.70;99.90
12708;DHT22;6418;50.824;4.718;2023-04-24T08:23:02;8.80;99.90
12708;DHT22;6418;50.824;4.718;2023-04-24T08:25:29;8.90;99.90
12708;DHT22;6418;50.824;4.718;2023-04-24T08:27:56;8.90;99.90
12708;DHT22;6418;50.824;4.718;2023-04-24T08:30:23;9.00;99.90
12708;DHT22;6418;50.824;4.718;2023-04-24T08:32:51;9.10;99.90
12708;DHT22;6418;50.824;4.718;2023-04-24T08:35:18;9.20;99.90
12708;DHT22;6418;50.824;4.718;2023-04-24T08:37:45;9.30;99.90
12708;DHT22;6418;50.824;4.718;2023-04-24T08:40:13;9.30;99.90
12708;DHT22;6418;50.824;4.718;2023-04-24T08:42:42;9.30;99.90
12708;DHT22;6418;50.824;4.718;2023-04-24T08:45:11;9.30;99.90
12708;DHT22;6418;50.824;4.718;2023-04-24T08:47:39;9.40;99.90
12708;DHT22;6418;50.824;4.718;2023-04-24T08:50:08;9.40;99.90
12708;DHT22;6418;50.824;4.718;2023-04-24T08:52:35;9.50;99.90
12708;DHT22;6418;50.824;4.718;2023-04-24T08:55:03;9.60;99.90
12708;DHT22;6418;50.824;4.718;2023-04-24T08:57:31;9.60;99.90
12708;DHT22;6418;50.824;4.718;2023-04-24T08:59:59;9.60;99.90
12708;DHT22;6418;50.824;4.718;2023-04-24T09:02:27;9.70;99.90
12708;DHT22;6418;50.824;4.718;2023-04-24T09:04:56;9.80;99.90
12708;DHT22;6418;50.824;4.718;2023-04-24T09:07:27;9.90;99.90
12708;DHT22;6418;50.824;4.718;2023-04-24T09:09:56;9.90;99.90
12708;DHT22;6418;50.824;4.718;2023-04-24T09:12:23;10.00;99.90
12708;DHT22;6418;50.824;4.718;2023-04-24T09:14:50;9.90;99.90
12708;DHT22;6418;50.824;4.718;2023-04-24T09:17:18;9.90;99.90
12708;DHT22;6418;50.824;4.718;2023-04-24T09:19:45;10.00;99.90
12708;DHT22;6418;50.824;4.718;2023-04-24T09:22:12;10.00;99.90
12708;DHT22;6418;50.824;4.718;2023-04-24T09:24:40;10.00;99.90
12708;DHT22;6418;50.824;4.718;2023-04-24T09:27:07;10.00;99.90
12708;DHT22;6418;50.824;4.718;2023-04-24T09:29:37;10.00;99.90
12708;DHT22;6418;50.824;4.718;2023-04-24T09:32:18;10.10;99.90
12708;DHT22;6418;50.824;4.718;2023-04-24T09:34:48;10.10;99.90
12708;DHT22;6418;50.824;4.718;2023-04-24T09:37:27;10.10;99.90
12708;DHT22;6418;50.824;4.718;2023-04-24T09:40:12;10.20;99.90
12708;DHT22;6418;50.824;4.718;2023-04-24T09:42:39;10.30;99.90
12708;DHT22;6418;50.824;4.718;2023-04-24T09:45:09;10.40;99.90
12708;DHT22;6418;50.824;4.718;2023-04-24T09:47:37;10.40;99.90
12708;DHT22;6418;50.824;4.718;2023-04-24T09:50:12;10.40;99.90
12708;DHT22;6418;50.824;4.718;2023-04-24T09:52:43;10.40;99.90
12708;DHT22;6418;50.824;4.718;2023-04-24T09:55:14;10.50;99.90
12708;DHT22;6418;50.824;4.718;2023-04-24T09:57:50;10.50;99.90
12708;DHT22;6418;50.824;4.718;2023-04-24T10:00:22;10.50;99.90
12708;DHT22;6418;50.824;4.718;2023-04-24T10:02:56;10.50;99.90
12708;DHT22;6418;50.824;4.718;2023-04-24T10:05:25;10.50;99.90
12708;DHT22;6418;50.824;4.718;2023-04-24T10:07:56;10.40;99.90
12708;DHT22;6418;50.824;4.718;2023-04-24T10:10:25;10.40;99.90
12708;DHT22;6418;50.824;4.718;2023-04-24T10:12:53;10.50;99.90
12708;DHT22;6418;50.824;4.718;2023-04-24T10:15:21;10.60;99.90
12708;DHT22;6418;50.824;4.718;2023-04-24T10:17:49;10.60;99.90
12708;DHT22;6418;50.824;4.718;2023-04-24T10:20:19;10.70;99.90
12708;DHT22;6418;50.824;4.718;2023-04-24T10:22:48;10.80;99.90
12708;DHT22;6418;50.824;4.718;2023-04-24T10:25:18;10.80;99.90
12708;DHT22;6418;50.824;4.718;2023-04-24T10:27:47;10.90;99.90
12708;DHT22;6418;50.824;4.718;2023-04-24T10:30:15;11.00;99.90
12708;DHT22;6418;50.824;4.718;2023-04-24T10:32:42;11.10;99.90
12708;DHT22;6418;50.824;4.718;2023-04-24T10:35:13;11.00;99.90
12708;DHT22;6418;50.824;4.718;2023-04-24T10:37:43;11.10;99.90
12708;DHT22;6418;50.824;4.718;2023-04-24T10:40:11;11.10;99.90
12708;DHT22;6418;50.824;4.718;2023-04-24T10:42:42;11.20;99.90
12708;DHT22;6418;50.824;4.718;2023-04-24T10:45:18;11.30;99.90
12708;DHT22;6418;50.824;4.718;2023-04-24T10:47:56;11.30;99.90
12708;DHT22;6418;50.824;4.718;2023-04-24T10:50:25;11.30;99.90
12708;DHT22;6418;50.824;4.718;2023-04-24T10:52:52;11.20;99.90
12708;DHT22;6418;50.824;4.718;2023-04-24T10:55:44;11.20;99.90
12708;DHT22;6418;50.824;4.718;2023-04-24T10:58:12;11.20;99.90
12708;DHT22;6418;50.824;4.718;2023-04-24T11:00:42;11.10;99.90
12708;DHT22;6418;50.824;4.718;2023-04-24T11:03:24;11.10;99.90
12708;DHT22;6418;50.824;4.718;2023-04-24T11:05:56;11.20;99.90
12708;DHT22;6418;50.824;4.718;2023-04-24T11:08:28;11.30;99.90
12708;DHT22;6418;50.824;4.718;2023-04-24T11:10:58;11.40;99.90
12708;DHT22;6418;50.824;4.718;2023-04-24T11:13:26;11.40;99.90
12708;DHT22;6418;50.824;4.718;2023-04-24T11:16:16;11.50;99.90
12708;DHT22;6418;50.824;4.718;2023-04-24T11:18:51;11.60;99.90
12708;DHT22;6418;50.824;4.718;2023-04-24T11:21:20;11.70;99.90
12708;DHT22;6418;50.824;4.718;2023-04-24T11:23:47;11.70;99.90
12708;DHT22;6418;50.824;4.718;2023-04-24T11:26:18;11.70;99.90
12708;DHT22;6418;50.824;4.718;2023-04-24T11:28:49;11.70;99.90
12708;DHT22;6418;50.824;4.718;2023-04-24T11:31:37;11.70;99.90
12708;DHT22;6418;50.824;4.718;2023-04-24T11:34:12;11.70;99.90
12708;DHT22;6418;50.824;4.718;2023-04-24T11:36:40;11.60;99.90
12708;DHT22;6418;50.824;4.718;2023-04-24T11:39:09;11.60;99.90
12708;DHT22;6418;50.824;4.718;2023-04-24T11:41:37;11.60;99.90
12708;DHT22;6418;50.824;4.718;2023-04-24T11:44:06;11.50;99.90
12708;DHT22;6418;50.824;4.718;2023-04-24T11:46:33;11.60;99.90
12708;DHT22;6418;50.824;4.718;2023-04-24T11:49:01;11.60;99.90
12708;DHT22;6418;50.824;4.718;2023-04-24T11:51:28;11.60;99.90
12708;DHT22;6418;50.824;4.718;2023-04-24T11:53:57;11.70;99.90
12708;DHT22;6418;50.824;4.718;2023-04-24T11:56:25;11.80;99.90
12708;DHT22;6418;50.824;4.718;2023-04-24T11:58:52;11.90;99.90
12708;DHT22;6418;50.824;4.718;2023-04-24T12:01:20;12.00;99.90
12708;DHT22;6418;50.824;4.718;2023-04-24T12:03:48;12.10;99.90
12708;DHT22;6418;50.824;4.718;2023-04-24T12:06:18;12.10;99.90
12708;DHT22;6418;50.824;4.718;2023-04-24T12:08:48;12.10;99.90
12708;DHT22;6418;50.824;4.718;2023-04-24T12:11:16;12.10;99.90
12708;DHT22;6418;50.824;4.718;2023-04-24T12:13:46;12.20;99.90
12708;DHT22;6418;50.824;4.718;2023-04-24T12:16:13;12.10;99.90
12708;DHT22;6418;50.824;4.718;2023-04-24T12:18:44;12.20;99.90
12708;DHT22;6418;50.824;4.718;2023-04-24T12:21:20;12.20;99.90
12708;DHT22;6418;50.824;4.718;2023-04-24T12:23:47;12.30;99.90
12708;DHT22;6418;50.824;4.718;2023-04-24T12:26:17;12.30;99.90
12708;DHT22;6418;50.824;4.718;2023-04-24T12:28:47;12.50;99.90
12708;DHT22;6418;50.824;4.718;2023-04-24T12:31:16;12.50;99.90
12708;DHT22;6418;50.824;4.718;2023-04-24T12:33:43;12.50;99.90
12708;DHT22;6418;50.824;4.718;2023-04-24T12:36:11;12.50;99.90
12708;DHT22;6418;50.824;4.718;2023-04-24T12:38:43;12.60;99.90
12708;DHT22;6418;50.824;4.718;2023-04-24T12:41:13;12.50;99.90
12708;DHT22;6418;50.824;4.718;2023-04-24T12:43:51;12.40;99.90
12708;DHT22;6418;50.824;4.718;2023-04-24T12:46:18;12.50;99.90
12708;DHT22;6418;50.824;4.718;2023-04-24T12:48:45;12.50;99.90
12708;DHT22;6418;50.824;4.718;2023-04-24T12:51:12;12.50;99.90
12708;DHT22;6418;50.824;4.718;2023-04-24T12:53:40;12.60;99.90
12708;DHT22;6418;50.824;4.718;2023-04-24T12:56:07;12.70;99.90
12708;DHT22;6418;50.824;4.718;2023-04-24T12:58:34;12.70;99.90
12708;DHT22;6418;50.824;4.718;2023-04-24T13:01:01;12.80;99.90
12708;DHT22;6418;50.824;4.718;2023-04-24T13:03:28;12.80;99.90
12708;DHT22;6418;50.824;4.718;2023-04-24T13:05:55;12.80;99.90
12708;DHT22;6418;50.824;4.718;2023-04-24T13:08:22;12.70;99.90
12708;DHT22;6418;50.824;4.718;2023-04-24T13:10:51;12.60;99.90
12708;DHT22;6418;50.824;4.718;2023-04-24T13:13:19;12.70;99.90
12708;DHT22;6418;50.824;4.718;2023-04-24T13:15:46;12.70;99.90
12708;DHT22;6418;50.824;4.718;2023-04-24T13:18:13;12.90;99.90
12708;DHT22;6418;50.824;4.718;2023-04-24T13:20:40;13.00;99.90
12708;DHT22;6418;50.824;4.718;2023-04-24T13:23:07;13.00;99.90
12708;DHT22;6418;50.824;4.718;2023-04-24T13:25:36;13.00;99.90
12708;DHT22;6418;50.824;4.718;2023-04-24T13:28:05;13.10;99.90
12708;DHT22;6418;50.824;4.718;2023-04-24T13:30:32;13.20;99.90
12708;DHT22;6418;50.824;4.718;2023-04-24T13:33:00;13.30;99.90
12708;DHT22;6418;50.824;4.718;2023-04-24T13:35:27;13.30;99.90
12708;DHT22;6418;50.824;4.718;2023-04-24T13:37:54;13.40;99.90
12708;DHT22;6418;50.824;4.718;2023-04-24T13:40:21;13.40;99.90
12708;DHT22;6418;50.824;4.718;2023-04-24T13:42:49;13.50;99.90
12708;DHT22;6418;50.824;4.718;2023-04-24T13:45:18;13.40;99.90
12708;DHT22;6418;50.824;4.718;2023-04-24T13:47:46;13.30;99.90
12708;DHT22;6418;50.824;4.718;2023-04-24T13:50:13;13.30;99.90
12708;DHT22;6418;50.824;4.718;2023-04-24T13:52:40;13.30;99.90
12708;DHT22;6418;50.824;4.718;2023-04-24T13:55:08;13.40;99.90
12708;DHT22;6418;50.824;4.718;2023-04-24T13:57:35;13.40;99.90
12708;DHT22;6418;50.824;4.718;2023-04-24T14:00:02;13.40;99.90
12708;DHT22;6418;50.824;4.718;2023-04-24T14:02:31;13.40;99.90
12708;DHT22;6418;50.824;4.718;2023-04-24T14:04:58;13.40;99.90
12708;DHT22;6418;50.824;4.718;2023-04-24T14:07:25;13.40;99.90
12708;DHT22;6418;50.824;4.718;2023-04-24T14:09:52;13.40;99.90
12708;DHT22;6418;50.824;4.718;2023-04-24T14:12:20;13.60;99.90
12708;DHT22;6418;50.824;4.718;2023-04-24T14:14:47;13.50;99.90
12708;DHT22;6418;50.824;4.718;2023-04-24T14:17:14;13.50;99.90
12708;DHT22;6418;50.824;4.718;2023-04-24T14:19:43;13.50;99.90
12708;DHT22;6418;50.824;4.718;2023-04-24T14:22:10;13.60;99.90
12708;DHT22;6418;50.824;4.718;2023-04-24T14:24:37;13.50;99.90
12708;DHT22;6418;50.824;4.718;2023-04-24T14:27:04;13.50;99.90
12708;DHT22;6418;50.824;4.718;2023-04-24T14:29:31;13.40;99.90
12708;DHT22;6418;50.824;4.718;2023-04-24T14:31:57;13.50;99.90
12708;DHT22;6418;50.824;4.718;2023-04-24T14:34:24;13.40;99.90
12708;DHT22;6418;50.824;4.718;2023-04-24T14:36:53;13.30;99.90
12708;DHT22;6418;50.824;4.718;2023-04-24T14:39:20;13.10;99.90
12708;DHT22;6418;50.824;4.718;2023-04-24T14:41:47;13.10;99.90
12708;DHT22;6418;50.824;4.718;2023-04-24T14:44:14;13.20;99.90
12708;DHT22;6418;50.824;4.718;2023-04-24T14:46:41;13.20;99.90
12708;DHT22;6418;50.824;4.718;2023-04-24T14:49:09;13.30;99.90
12708;DHT22;6418;50.824;4.718;2023-04-24T14:51:37;13.30;99.90
12708;DHT22;6418;50.824;4.718;2023-04-24T14:54:06;13.20;99.90
12708;DHT22;6418;50.824;4.718;2023-04-24T14:56:33;13.00;99.90
12708;DHT22;6418;50.824;4.718;2023-04-24T14:59:00;12.70;99.90
12708;DHT22;6418;50.824;4.718;2023-04-24T15:01:27;12.50;99.90
12708;DHT22;6418;50.824;4.718;2023-04-24T15:03:54;12.40;99.90
12708;DHT22;6418;50.824;4.718;2023-04-24T15:06:21;12.40;99.90
12708;DHT22;6418;50.824;4.718;2023-04-24T15:08:48;12.20;99.90
12708;DHT22;6418;50.824;4.718;2023-04-24T15:11:17;12.20;99.90
12708;DHT22;6418;50.824;4.718;2023-04-24T15:13:44;12.30;99.90
12708;DHT22;6418;50.824;4.718;2023-04-24T15:16:11;12.30;99.90
12708;DHT22;6418;50.824;4.718;2023-04-24T15:18:38;12.20;99.90
12708;DHT22;6418;50.824;4.718;2023-04-24T15:21:06;12.30;99.90
12708;DHT22;6418;50.824;4.718;2023-04-24T15:23:33;12.20;99.90
12708;DHT22;6418;50.824;4.718;2023-04-24T15:26:00;12.20;99.90
12708;DHT22;6418;50.824;4.718;2023-04-24T15:28:29;12.10;99.90
12708;DHT22;6418;50.824;4.718;2023-04-24T15:30:56;12.20;99.90
12708;DHT22;6418;50.824;4.718;2023-04-24T15:33:23;12.20;99.90
12708;DHT22;6418;50.824;4.718;2023-04-24T15:35:51;12.30;99.90
12708;DHT22;6418;50.824;4.718;2023-04-24T15:38:18;12.30;99.90
12708;DHT22;6418;50.824;4.718;2023-04-24T15:40:45;12.20;99.90
12708;DHT22;6418;50.824;4.718;2023-04-24T15:43:13;12.30;99.90
12708;DHT22;6418;50.824;4.718;2023-04-24T15:45:43;12.20;99.90
12708;DHT22;6418;50.824;4.718;2023-04-24T15:48:10;12.20;99.90
12708;DHT22;6418;50.824;4.718;2023-04-24T15:50:37;12.20;99.90
12708;DHT22;6418;50.824;4.718;2023-04-24T15:53:05;12.10;99.90
12708;DHT22;6418;50.824;4.718;2023-04-24T15:55:32;12.00;99.90
12708;DHT22;6418;50.824;4.718;2023-04-24T15:58:00;11.90;99.90
12708;DHT22;6418;50.824;4.718;2023-04-24T16:00:27;11.90;99.90